sensor_id;sensor_type;location;lat;lon;timestamp;pressure;altitude;pressure_sealevel;temperature;humidity
73267;BME280;61495;53.400;7.608;2023-09-07T00:00:21;102159.03;;;19.09;76.42
73267;BME280;61495;53.400;7.608;2023-09-07T00:02:46;102156.16;;;19.04;76.20
73267;BME280;61495;53.400;7.608;2023-09-07T00:05:12;102155.59;;;19.02;77.15
73267;BME280;61495;53.400;7.608;2023-09-07T00:07:38;102151.66;;;18.98;76.96
73267;BME280;61495;53.400;7.608;2023-09-07T00:10:04;102154.63;;;18.97;77.33
73267;BME280;61495;53.400;7.608;2023-09-07T00:12:30;102152.13;;;18.95;76.85
73267;BME280;61495;53.400;7.608;2023-09-07T00:14:57;102150.94;;;18.91;76.93
73267;BME280;61495;53.400;7.608;2023-09-07T00:17:22;102143.25;;;18.88;77.07
73267;BME280;61495;53.400;7.608;2023-09-07T00:19:48;102140.38;;;18.83;77.08
73267;BME280;61495;53.400;7.608;2023-09-07T00:22:16;102138.13;;;18.80;77.05
73267;BME280;61495;53.400;7.608;2023-09-07T00:24:42;102143.19;;;18.76;77.66
73267;BME280;61495;53.400;7.608;2023-09-07T00:27:08;102139.03;;;18.74;78.00
73267;BME280;61495;53.400;7.608;2023-09-07T00:29:35;102137.84;;;18.70;78.01
73267;BME280;61495;53.400;7.608;2023-09-07T00:32:01;102141.22;;;18.65;77.46
73267;BME280;61495;53.400;7.608;2023-09-07T00:34:27;102134.38;;;18.63;77.75
73267;BME280;61495;53.400;7.608;2023-09-07T00:36:52;102144.63;;;18.61;77.77
73267;BME280;61495;53.400;7.608;2023-09-07T00:39:18;102139.66;;;18.58;78.26
73267;BME280;61495;53.400;7.608;2023-09-07T00:41:43;102140.13;;;18.55;nan
73267;BME280;61495;53.400;7.608;2023-09-07T00:44:09;102141.41;;;18.52;78.12
73267;BME280;61495;53.400;7.608;2023-09-07T00:46:34;102135.59;;;18.49;78.56
73267;BME280;61495;53.400;7.608;2023-09-07T00:49:00;102137.06;;;18.45;79.01
73267;BME280;61495;53.400;7.608;2023-09-07T00:51:26;102137.53;;;18.42;78.88
73267;BME280;61495;53.400;7.608;2023-09-07T00:53:52;102138.81;;;18.39;78.41
73267;BME280;61495;53.400;7.608;2023-09-07T00:56:19;102137.38;;;18.37;78.43
73267;BME280;61495;53.400;7.608;2023-09-07T00:58:44;102134.28;;;18.33;79.71
73267;BME280;61495;53.400;7.608;2023-09-07T01:01:10;102134.53;;;18.31;79.23
73267;BME280;61495;53.400;7.608;2023-09-07T01:03:36;102129.56;;;18.28;79.41
73267;BME280;61495;53.400;7.608;2023-09-07T01:06:06;102130.84;;;18.26;79.49
73267;BME280;61495;53.400;7.608;2023-09-07T01:08:35;102135.03;;;18.22;79.97
73267;BME280;61495;53.400;7.608;2023-09-07T01:11:12;102125.47;;;18.19;79.73
73267;BME280;61495;53.400;7.608;2023-09-07T01:13:38;102127.56;;;18.17;80.59
73267;BME280;61495;53.400;7.608;2023-09-07T01:16:04;102133.44;;;18.14;80.13
73267;BME280;61495;53.400;7.608;2023-09-07T01:18:30;102130.13;;;18.12;80.16
73267;BME280;61495;53.400;7.608;2023-09-07T01:20:57;102126.00;;;18.10;80.89
73267;BME280;61495;53.400;7.608;2023-09-07T01:23:23;102121.84;;;18.07;80.76
73267;BME280;61495;53.400;7.608;2023-09-07T01:25:49;102120.63;;;18.03;81.61
73267;BME280;61495;53.400;7.608;2023-09-07T01:28:16;102123.59;;;18.02;81.05
73267;BME280;61495;53.400;7.608;2023-09-07T01:30:41;102123.78;;;18.00;80.78
73267;BME280;61495;53.400;7.608;2023-09-07T01:33:08;102117.78;;;17.98;80.41
73267;BME280;61495;53.400;7.608;2023-09-07T01:35:35;102110.91;;;17.96;81.10
73267;BME280;61495;53.400;7.608;2023-09-07T01:38:01;102118.44;;;17.94;80.49
73267;BME280;61495;53.400;7.608;2023-09-07T01:40:28;102121.59;;;17.91;80.21
73267;BME280;61495;53.400;7.608;2023-09-07T01:42:53;102121.81;;;17.89;80.44
73267;BME280;61495;53.400;7.608;2023-09-07T01:45:19;102119.56;;;17.86;80.59
73267;BME280;61495;53.400;7.608;2023-09-07T01:47:45;102116.25;;;17.84;81.32
73267;BME280;61495;53.400;7.608;2023-09-07T01:50:10;102123.75;;;17.82;81.69
73267;BME280;61495;53.400;7.608;2023-09-07T01:52:36;102116.69;;;17.81;82.93
73267;BME280;61495;53.400;7.608;2023-09-07T01:55:01;102114.19;;;17.80;79.85
73267;BME280;61495;53.400;7.608;2023-09-07T01:57:27;102117.13;;;17.78;80.82
73267;BME280;61495;53.400;7.608;2023-09-07T01:59:52;102125.47;;;17.76;81.68
73267;BME280;61495;53.400;7.608;2023-09-07T02:02:17;102124.66;;;17.76;81.60
73267;BME280;61495;53.400;7.608;2023-09-07T02:04:43;102123.00;;;17.75;81.91
73267;BME280;61495;53.400;7.608;2023-09-07T02:07:11;102125.72;;;17.75;81.53
73267;BME280;61495;53.400;7.608;2023-09-07T02:09:37;102122.38;;;17.73;83.06
73267;BME280;61495;53.400;7.608;2023-09-07T02:12:03;102122.63;;;17.71;82.34
73267;BME280;61495;53.400;7.608;2023-09-07T02:14:29;102127.22;;;17.71;81.04
73267;BME280;61495;53.400;7.608;2023-09-07T02:16:55;102124.72;;;17.69;82.77
73267;BME280;61495;53.400;7.608;2023-09-07T02:19:20;102129.31;;;17.69;81.96
73267;BME280;61495;53.400;7.608;2023-09-07T02:21:47;102128.47;;;17.68;80.69
73267;BME280;61495;53.400;7.608;2023-09-07T02:24:13;102126.81;;;17.67;81.79
73267;BME280;61495;53.400;7.608;2023-09-07T02:26:38;102119.75;;;17.66;81.33
73267;BME280;61495;53.400;7.608;2023-09-07T02:29:09;102124.34;;;17.66;80.72
73267;BME280;61495;53.400;7.608;2023-09-07T02:31:34;102125.38;;;17.65;81.80
73267;BME280;61495;53.400;7.608;2023-09-07T02:33:59;102117.50;;;17.63;81.84
73267;BME280;61495;53.400;7.608;2023-09-07T02:36:25;102112.28;;;17.62;82.56
73267;BME280;61495;53.400;7.608;2023-09-07T02:38:50;102122.06;;;17.63;85.12
73267;BME280;61495;53.400;7.608;2023-09-07T02:41:15;102121.44;;;17.61;81.87
73267;BME280;61495;53.400;7.608;2023-09-07T02:43:41;102126.88;;;17.61;82.92
73267;BME280;61495;53.400;7.608;2023-09-07T02:46:06;102118.13;;;17.59;82.47
73267;BME280;61495;53.400;7.608;2023-09-07T02:48:32;102113.75;;;17.58;82.49
73267;BME280;61495;53.400;7.608;2023-09-07T02:50:57;102114.00;;;17.56;82.84
73267;BME280;61495;53.400;7.608;2023-09-07T02:53:23;102118.56;;;17.56;82.78
73267;BME280;61495;53.400;7.608;2023-09-07T02:55:49;102118.56;;;17.56;82.94
73267;BME280;61495;53.400;7.608;2023-09-07T02:58:15;102121.28;;;17.56;83.04
73267;BME280;61495;53.400;7.608;2023-09-07T03:00:43;102117.13;;;17.53;82.61
73267;BME280;61495;53.400;7.608;2023-09-07T03:03:10;102116.28;;;17.53;82.04
73267;BME280;61495;53.400;7.608;2023-09-07T03:05:37;102118.97;;;17.53;83.44
73267;BME280;61495;53.400;7.608;2023-09-07T03:08:03;102122.78;;;17.52;82.42
73267;BME280;61495;53.400;7.608;2023-09-07T03:10:28;102123.81;;;17.51;83.30
73267;BME280;61495;53.400;7.608;2023-09-07T03:12:54;102125.91;;;17.49;82.65
73267;BME280;61495;53.400;7.608;2023-09-07T03:15:20;102121.31;;;17.49;83.04
73267;BME280;61495;53.400;7.608;2023-09-07T03:17:45;102120.50;;;17.49;83.43
73267;BME280;61495;53.400;7.608;2023-09-07T03:20:11;102123.66;;;17.46;82.80
73267;BME280;61495;53.400;7.608;2023-09-07T03:22:43;102111.97;;;17.45;85.05
73267;BME280;61495;53.400;7.608;2023-09-07T03:25:10;102124.44;;;17.46;83.96
73267;BME280;61495;53.400;7.608;2023-09-07T03:27:38;102130.72;;;17.47;84.01
73267;BME280;61495;53.400;7.608;2023-09-07T03:30:04;102127.41;;;17.45;82.98
73267;BME280;61495;53.400;7.608;2023-09-07T03:32:31;102127.41;;;17.45;83.66
73267;BME280;61495;53.400;7.608;2023-09-07T03:35:02;102128.44;;;17.44;82.61
73267;BME280;61495;53.400;7.608;2023-09-07T03:37:28;102123.47;;;17.41;82.69
73267;BME280;61495;53.400;7.608;2023-09-07T03:39:55;102127.84;;;17.42;83.50
73267;BME280;61495;53.400;7.608;2023-09-07T03:42:21;102124.28;;;17.41;83.12
73267;BME280;61495;53.400;7.608;2023-09-07T03:44:46;102129.13;;;17.39;82.73
73267;BME280;61495;53.400;7.608;2023-09-07T03:47:13;102131.19;;;17.37;83.25
73267;BME280;61495;53.400;7.608;2023-09-07T03:49:39;102133.69;;;17.39;83.96
73267;BME280;61495;53.400;7.608;2023-09-07T03:52:04;102131.19;;;17.37;83.03
73267;BME280;61495;53.400;7.608;2023-09-07T03:54:31;102135.19;;;17.35;83.03
73267;BME280;61495;53.400;7.608;2023-09-07T03:56:57;102130.81;;;17.34;83.59
73267;BME280;61495;53.400;7.608;2023-09-07T03:59:23;102140.81;;;17.33;82.67
73267;BME280;61495;53.400;7.608;2023-09-07T04:01:48;102132.06;;;17.31;83.71
73267;BME280;61495;53.400;7.608;2023-09-07T04:04:14;102129.59;;;17.30;83.15
73267;BME280;61495;53.400;7.608;2023-09-07T04:06:40;102137.13;;;17.28;82.88
73267;BME280;61495;53.400;7.608;2023-09-07T04:09:05;102139.00;;;17.27;84.33
73267;BME280;61495;53.400;7.608;2023-09-07T04:11:31;102148.41;;;17.25;83.21
73267;BME280;61495;53.400;7.608;2023-09-07T04:13:56;102141.53;;;17.22;83.16
73267;BME280;61495;53.400;7.608;2023-09-07T04:16:21;102141.75;;;17.20;83.67
73267;BME280;61495;53.400;7.608;2023-09-07T04:18:47;102142.19;;;17.17;83.28
73267;BME280;61495;53.400;7.608;2023-09-07T04:21:12;102146.75;;;17.17;83.68
73267;BME280;61495;53.400;7.608;2023-09-07T04:23:38;102147.00;;;17.15;83.47
73267;BME280;61495;53.400;7.608;2023-09-07T04:26:07;102146.34;;;17.13;83.08
73267;BME280;61495;53.400;7.608;2023-09-07T04:28:33;102153.03;;;17.11;83.28
73267;BME280;61495;53.400;7.608;2023-09-07T04:30:59;102141.81;;;17.07;82.71
73267;BME280;61495;53.400;7.608;2023-09-07T04:33:24;102143.91;;;17.05;82.40
73267;BME280;61495;53.400;7.608;2023-09-07T04:35:49;102136.03;;;17.04;83.85
73267;BME280;61495;53.400;7.608;2023-09-07T04:38:15;102143.53;;;17.02;83.88
73267;BME280;61495;53.400;7.608;2023-09-07T04:40:40;102144.78;;;16.99;82.75
73267;BME280;61495;53.400;7.608;2023-09-07T04:43:05;102147.72;;;16.98;83.32
73267;BME280;61495;53.400;7.608;2023-09-07T04:45:36;102140.88;;;16.95;82.97
73267;BME280;61495;53.400;7.608;2023-09-07T04:48:02;102148.34;;;16.93;83.77
73267;BME280;61495;53.400;7.608;2023-09-07T04:50:28;102150.22;;;16.93;83.23
73267;BME280;61495;53.400;7.608;2023-09-07T04:52:53;102146.91;;;16.91;83.01
73267;BME280;61495;53.400;7.608;2023-09-07T04:55:19;102148.19;;;16.88;83.26
73267;BME280;61495;53.400;7.608;2023-09-07T04:57:44;102147.59;;;16.86;83.29
73267;BME280;61495;53.400;7.608;2023-09-07T05:00:11;102148.63;;;16.85;83.77
73267;BME280;61495;53.400;7.608;2023-09-07T05:02:37;102151.53;;;16.84;84.54
73267;BME280;61495;53.400;7.608;2023-09-07T05:05:07;102143.84;;;16.81;83.75
73267;BME280;61495;53.400;7.608;2023-09-07T05:07:32;102148.22;;;16.82;84.42
73267;BME280;61495;53.400;7.608;2023-09-07T05:09:58;102145.75;;;16.80;84.33
73267;BME280;61495;53.400;7.608;2023-09-07T05:12:23;102150.09;;;16.81;85.72
73267;BME280;61495;53.400;7.608;2023-09-07T05:14:49;102161.97;;;16.80;84.59
73267;BME280;61495;53.400;7.608;2023-09-07T05:17:15;102161.97;;;16.80;85.06
73267;BME280;61495;53.400;7.608;2023-09-07T05:19:40;102161.97;;;16.80;85.28
73267;BME280;61495;53.400;7.608;2023-09-07T05:22:05;102161.97;;;16.80;85.34
73267;BME280;61495;53.400;7.608;2023-09-07T05:24:31;102165.28;;;16.82;84.71
73267;BME280;61495;53.400;7.608;2023-09-07T05:26:57;102158.00;;;16.83;84.53
73267;BME280;61495;53.400;7.608;2023-09-07T05:29:22;102162.16;;;16.85;85.37
73267;BME280;61495;53.400;7.608;2023-09-07T05:31:48;102155.28;;;16.89;84.73
73267;BME280;61495;53.400;7.608;2023-09-07T05:34:13;102158.16;;;16.94;85.92
73267;BME280;61495;53.400;7.608;2023-09-07T05:36:38;102162.69;;;17.00;84.93
73267;BME280;61495;53.400;7.608;2023-09-07T05:39:04;102154.91;;;17.10;86.60
73267;BME280;61495;53.400;7.608;2023-09-07T05:41:29;102158.44;;;17.17;86.39
73267;BME280;61495;53.400;7.608;2023-09-07T05:43:55;102164.66;;;17.25;86.22
73267;BME280;61495;53.400;7.608;2023-09-07T05:46:20;102167.09;;;17.33;85.66
73267;BME280;61495;53.400;7.608;2023-09-07T05:48:46;102162.03;;;17.43;86.60
73267;BME280;61495;53.400;7.608;2023-09-07T05:51:12;102160.72;;;17.52;85.85
73267;BME280;61495;53.400;7.608;2023-09-07T05:53:39;102175.66;;;17.61;85.32
73267;BME280;61495;53.400;7.608;2023-09-07T05:56:04;102165.59;;;17.68;86.84
73267;BME280;61495;53.400;7.608;2023-09-07T05:58:29;102168.66;;;17.78;86.08
73267;BME280;61495;53.400;7.608;2023-09-07T06:00:55;102169.59;;;17.90;85.49
73267;BME280;61495;53.400;7.608;2023-09-07T06:03:20;102173.25;;;18.02;85.87
73267;BME280;61495;53.400;7.608;2023-09-07T06:05:46;102182.28;;;18.14;84.80
73267;BME280;61495;53.400;7.608;2023-09-07T06:08:11;102176.72;;;18.27;85.39
73267;BME280;61495;53.400;7.608;2023-09-07T06:10:37;102185.09;;;18.44;84.85
73267;BME280;61495;53.400;7.608;2023-09-07T06:13:03;102181.44;;;18.57;84.27
73267;BME280;61495;53.400;7.608;2023-09-07T06:15:29;102176.69;;;18.70;84.26
73267;BME280;61495;53.400;7.608;2023-09-07T06:17:55;102186.09;;;18.86;84.55
73267;BME280;61495;53.400;7.608;2023-09-07T06:20:20;102192.56;;;19.03;84.59
73267;BME280;61495;53.400;7.608;2023-09-07T06:22:46;102190.03;;;19.20;83.55
73267;BME280;61495;53.400;7.608;2023-09-07T06:25:11;102186.66;;;19.36;83.61
73267;BME280;61495;53.400;7.608;2023-09-07T06:27:37;102183.66;;;19.56;82.43
73267;BME280;61495;53.400;7.608;2023-09-07T06:30:05;102184.06;;;19.71;82.04
73267;BME280;61495;53.400;7.608;2023-09-07T06:32:30;102185.47;;;19.85;81.66
73267;BME280;61495;53.400;7.608;2023-09-07T06:34:56;102183.72;;;20.02;81.56
73267;BME280;61495;53.400;7.608;2023-09-07T06:37:21;102183.59;;;20.20;80.78
73267;BME280;61495;53.400;7.608;2023-09-07T06:39:49;102185.03;;;20.34;80.53
73267;BME280;61495;53.400;7.608;2023-09-07T06:42:15;102184.78;;;20.47;79.19
73267;BME280;61495;53.400;7.608;2023-09-07T06:44:41;102178.81;;;20.62;79.93
73267;BME280;61495;53.400;7.608;2023-09-07T06:47:06;102186.75;;;20.75;79.90
73267;BME280;61495;53.400;7.608;2023-09-07T06:49:50;102183.31;;;20.96;79.21
73267;BME280;61495;53.400;7.608;2023-09-07T06:52:23;102190.88;;;21.06;77.82
73267;BME280;61495;53.400;7.608;2023-09-07T06:54:52;102194.03;;;21.26;77.55
73267;BME280;61495;53.400;7.608;2023-09-07T06:57:18;102192.91;;;21.39;78.13
73267;BME280;61495;53.400;7.608;2023-09-07T06:59:44;102196.38;;;21.51;77.21
73267;BME280;61495;53.400;7.608;2023-09-07T07:02:09;102195.81;;;21.66;77.03
73267;BME280;61495;53.400;7.608;2023-09-07T07:04:34;102195.44;;;21.90;76.63
73267;BME280;61495;53.400;7.608;2023-09-07T07:07:00;102195.94;;;22.04;75.15
73267;BME280;61495;53.400;7.608;2023-09-07T07:09:29;102202.47;;;22.03;75.01
73267;BME280;61495;53.400;7.608;2023-09-07T07:11:55;102205.66;;;22.33;74.53
73267;BME280;61495;53.400;7.608;2023-09-07T07:14:20;102212.97;;;22.49;74.51
73267;BME280;61495;53.400;7.608;2023-09-07T07:16:45;102208.59;;;22.65;74.05
73267;BME280;61495;53.400;7.608;2023-09-07T07:19:11;102207.06;;;22.74;73.25
73267;BME280;61495;53.400;7.608;2023-09-07T07:21:36;102212.47;;;22.91;72.36
73267;BME280;61495;53.400;7.608;2023-09-07T07:24:01;102222.94;;;22.99;72.87
73267;BME280;61495;53.400;7.608;2023-09-07T07:26:27;102225.59;;;23.15;71.68
73267;BME280;61495;53.400;7.608;2023-09-07T07:28:52;102223.22;;;23.24;72.11
73267;BME280;61495;53.400;7.608;2023-09-07T07:31:18;102229.50;;;23.46;71.37
73267;BME280;61495;53.400;7.608;2023-09-07T07:33:43;102228.88;;;23.66;71.29
73267;BME280;61495;53.400;7.608;2023-09-07T07:36:08;102233.06;;;23.73;69.96
73267;BME280;61495;53.400;7.608;2023-09-07T07:38:34;102227.69;;;23.89;69.51
73267;BME280;61495;53.400;7.608;2023-09-07T07:41:00;102235.22;;;24.03;68.77
73267;BME280;61495;53.400;7.608;2023-09-07T07:43:26;102233.31;;;24.04;68.79
73267;BME280;61495;53.400;7.608;2023-09-07T07:45:54;102232.06;;;24.16;67.37
73267;BME280;61495;53.400;7.608;2023-09-07T07:48:19;102237.88;;;24.25;67.24
73267;BME280;61495;53.400;7.608;2023-09-07T07:50:45;102246.22;;;24.45;67.33
73267;BME280;61495;53.400;7.608;2023-09-07T07:53:10;102239.69;;;24.51;66.55
73267;BME280;61495;53.400;7.608;2023-09-07T07:55:37;102250.19;;;24.64;66.39
73267;BME280;61495;53.400;7.608;2023-09-07T07:58:07;102232.66;;;24.70;65.27
73267;BME280;61495;53.400;7.608;2023-09-07T08:00:34;102236.56;;;24.79;65.32
73267;BME280;61495;53.400;7.608;2023-09-07T08:03:00;102237.63;;;24.78;64.32
73267;BME280;61495;53.400;7.608;2023-09-07T08:05:28;102228.97;;;24.97;64.63
73267;BME280;61495;53.400;7.608;2023-09-07T08:07:54;102223.19;;;24.98;63.57
73267;BME280;61495;53.400;7.608;2023-09-07T08:10:19;102224.63;;;25.16;63.57
73267;BME280;61495;53.400;7.608;2023-09-07T08:12:45;102223.03;;;25.30;64.26
73267;BME280;61495;53.400;7.608;2023-09-07T08:15:10;102224.66;;;25.36;63.77
73267;BME280;61495;53.400;7.608;2023-09-07T08:17:36;102218.97;;;25.53;63.99
73267;BME280;61495;53.400;7.608;2023-09-07T08:20:01;102218.41;;;25.66;63.62
73267;BME280;61495;53.400;7.608;2023-09-07T08:22:28;102217.34;;;25.82;63.13
73267;BME280;61495;53.400;7.608;2023-09-07T08:24:54;102209.38;;;26.01;62.50
73267;BME280;61495;53.400;7.608;2023-09-07T08:27:20;102212.63;;;26.08;61.93
73267;BME280;61495;53.400;7.608;2023-09-07T08:29:46;102209.34;;;26.11;61.21
73267;BME280;61495;53.400;7.608;2023-09-07T08:32:16;102214.84;;;26.11;60.13
73267;BME280;61495;53.400;7.608;2023-09-07T08:34:41;102209.91;;;26.13;60.69
73267;BME280;61495;53.400;7.608;2023-09-07T08:37:07;102208.25;;;26.27;60.85
73267;BME280;61495;53.400;7.608;2023-09-07T08:39:36;102203.81;;;26.41;59.84
73267;BME280;61495;53.400;7.608;2023-09-07T08:42:04;102207.06;;;26.53;59.79
73267;BME280;61495;53.400;7.608;2023-09-07T08:44:32;102202.59;;;26.67;59.72
73267;BME280;61495;53.400;7.608;2023-09-07T08:47:02;102210.34;;;26.65;58.98
73267;BME280;61495;53.400;7.608;2023-09-07T08:49:28;102207.00;;;26.83;58.21
73267;BME280;61495;53.400;7.608;2023-09-07T08:51:59;102208.09;;;26.77;58.52
73267;BME280;61495;53.400;7.608;2023-09-07T08:54:25;102208.66;;;26.84;58.39
73267;BME280;61495;53.400;7.608;2023-09-07T08:56:51;102210.22;;;26.95;58.44
73267;BME280;61495;53.400;7.608;2023-09-07T08:59:17;102206.56;;;27.10;58.34
73267;BME280;61495;53.400;7.608;2023-09-07T09:01:43;102204.56;;;27.21;58.42
73267;BME280;61495;53.400;7.608;2023-09-07T09:04:08;102205.63;;;27.30;57.67
73267;BME280;61495;53.400;7.608;2023-09-07T09:06:33;102199.22;;;27.39;57.68
73267;BME280;61495;53.400;7.608;2023-09-07T09:08:59;102203.16;;;27.28;55.90
73267;BME280;61495;53.400;7.608;2023-09-07T09:11:26;102209.13;;;27.45;56.79
73267;BME280;61495;53.400;7.608;2023-09-07T09:13:53;102213.31;;;27.72;56.26
73267;BME280;61495;53.400;7.608;2023-09-07T09:16:20;102207.44;;;27.83;57.09
73267;BME280;61495;53.400;7.608;2023-09-07T09:18:52;102213.38;;;27.95;56.12
73267;BME280;61495;53.400;7.608;2023-09-07T09:21:21;102219.53;;;27.87;54.07
73267;BME280;61495;53.400;7.608;2023-09-07T09:23:57;102216.84;;;27.77;54.67
73267;BME280;61495;53.400;7.608;2023-09-07T09:26:22;102216.09;;;28.00;53.95
73267;BME280;61495;53.400;7.608;2023-09-07T09:28:48;102207.63;;;27.92;53.45
73267;BME280;61495;53.400;7.608;2023-09-07T09:31:16;102211.59;;;28.15;54.78
73267;BME280;61495;53.400;7.608;2023-09-07T09:33:42;102207.13;;;28.19;55.28
73267;BME280;61495;53.400;7.608;2023-09-07T09:36:12;102203.78;;;28.22;54.08
73267;BME280;61495;53.400;7.608;2023-09-07T09:38:38;102213.81;;;28.12;54.08
73267;BME280;61495;53.400;7.608;2023-09-07T09:41:04;102204.78;;;28.31;53.32
73267;BME280;61495;53.400;7.608;2023-09-07T09:43:29;102203.59;;;28.42;53.23
73267;BME280;61495;53.400;7.608;2023-09-07T09:45:55;102204.22;;;28.34;53.61
73267;BME280;61495;53.400;7.608;2023-09-07T09:48:22;102194.50;;;28.41;52.35
73267;BME280;61495;53.400;7.608;2023-09-07T09:50:49;102201.34;;;28.44;53.10
73267;BME280;61495;53.400;7.608;2023-09-07T09:53:18;102188.66;;;28.43;52.94
73267;BME280;61495;53.400;7.608;2023-09-07T09:55:48;102180.50;;;28.56;52.79
73267;BME280;61495;53.400;7.608;2023-09-07T09:58:16;102178.97;;;28.69;53.34
73267;BME280;61495;53.400;7.608;2023-09-07T10:00:47;102177.38;;;28.68;52.25
73267;BME280;61495;53.400;7.608;2023-09-07T10:03:19;102174.44;;;28.78;53.08
73267;BME280;61495;53.400;7.608;2023-09-07T10:05:48;102173.28;;;28.60;52.26
73267;BME280;61495;53.400;7.608;2023-09-07T10:08:17;102176.34;;;28.59;51.86
73267;BME280;61495;53.400;7.608;2023-09-07T10:10:46;102165.19;;;28.45;52.05
73267;BME280;61495;53.400;7.608;2023-09-07T10:13:15;102172.53;;;28.55;52.35
73267;BME280;61495;53.400;7.608;2023-09-07T10:15:41;102164.16;;;28.60;52.19
73267;BME280;61495;53.400;7.608;2023-09-07T10:18:15;102161.41;;;28.60;52.81
73267;BME280;61495;53.400;7.608;2023-09-07T10:23:18;102166.75;;;28.75;52.28
73267;BME280;61495;53.400;7.608;2023-09-07T10:25:48;102160.13;;;28.76;52.61
73267;BME280;61495;53.400;7.608;2023-09-07T10:28:32;102155.69;;;28.80;52.52
73267;BME280;61495;53.400;7.608;2023-09-07T10:31:17;102152.31;;;28.83;52.19
73267;BME280;61495;53.400;7.608;2023-09-07T10:33:43;102157.53;;;28.85;51.57
73267;BME280;61495;53.400;7.608;2023-09-07T10:36:20;102162.31;;;28.79;51.61
73267;BME280;61495;53.400;7.608;2023-09-07T10:38:46;102154.38;;;28.73;51.90
73267;BME280;61495;53.400;7.608;2023-09-07T10:41:11;102159.31;;;28.76;51.46
73267;BME280;61495;53.400;7.608;2023-09-07T10:43:47;102151.38;;;28.69;51.98
73267;BME280;61495;53.400;7.608;2023-09-07T10:46:13;102156.66;;;28.89;51.79
73267;BME280;61495;53.400;7.608;2023-09-07T10:48:39;102148.13;;;29.04;52.21
73267;BME280;61495;53.400;7.608;2023-09-07T10:51:04;102155.44;;;28.95;52.12
73267;BME280;61495;53.400;7.608;2023-09-07T10:53:31;102147.25;;;28.90;51.92
73267;BME280;61495;53.400;7.608;2023-09-07T10:55:59;102153.22;;;28.97;51.62
73267;BME280;61495;53.400;7.608;2023-09-07T10:58:29;102143.38;;;28.91;51.66
73267;BME280;61495;53.400;7.608;2023-09-07T11:00:55;102145.63;;;28.89;50.97
73267;BME280;61495;53.400;7.608;2023-09-07T11:03:22;102143.22;;;28.83;51.19
73267;BME280;61495;53.400;7.608;2023-09-07T11:05:48;102139.31;;;28.84;51.27
73267;BME280;61495;53.400;7.608;2023-09-07T11:08:15;102139.56;;;28.87;51.43
73267;BME280;61495;53.400;7.608;2023-09-07T11:10:40;102135.75;;;28.83;51.81
73267;BME280;61495;53.400;7.608;2023-09-07T11:13:07;102132.34;;;28.91;51.12
73267;BME280;61495;53.400;7.608;2023-09-07T11:15:33;102131.72;;;28.94;51.79
73267;BME280;61495;53.400;7.608;2023-09-07T11:18:04;102127.31;;;28.93;51.54
73267;BME280;61495;53.400;7.608;2023-09-07T11:20:30;102124.78;;;28.97;51.87
73267;BME280;61495;53.400;7.608;2023-09-07T11:22:56;102131.56;;;29.04;52.16
73267;BME280;61495;53.400;7.608;2023-09-07T11:25:22;102123.28;;;29.04;52.64
73267;BME280;61495;53.400;7.608;2023-09-07T11:27:47;102115.00;;;29.04;52.61
73267;BME280;61495;53.400;7.608;2023-09-07T11:30:13;102118.94;;;28.98;52.15
73267;BME280;61495;53.400;7.608;2023-09-07T11:32:38;102116.00;;;28.95;51.71
73267;BME280;61495;53.400;7.608;2023-09-07T11:35:05;102112.19;;;28.91;51.54
73267;BME280;61495;53.400;7.608;2023-09-07T11:37:34;102105.75;;;28.95;52.09
73267;BME280;61495;53.400;7.608;2023-09-07T11:40:01;102106.22;;;29.02;51.88
73267;BME280;61495;53.400;7.608;2023-09-07T11:42:26;102102.25;;;29.08;51.80
73267;BME280;61495;53.400;7.608;2023-09-07T11:44:51;102103.81;;;29.14;52.25
73267;BME280;61495;53.400;7.608;2023-09-07T11:47:17;102100.00;;;29.10;51.07
73267;BME280;61495;53.400;7.608;2023-09-07T11:49:42;102116.41;;;29.02;50.72
73267;BME280;61495;53.400;7.608;2023-09-07T11:52:08;102107.47;;;29.10;50.99
73267;BME280;61495;53.400;7.608;2023-09-07T11:54:33;102099.34;;;29.18;51.77
73267;BME280;61495;53.400;7.608;2023-09-07T11:56:59;102101.78;;;29.20;52.71
73267;BME280;61495;53.400;7.608;2023-09-07T11:59:24;102101.56;;;29.16;51.30
73267;BME280;61495;53.400;7.608;2023-09-07T12:01:50;102098.56;;;29.32;52.27
73267;BME280;61495;53.400;7.608;2023-09-07T12:04:15;102097.59;;;29.41;51.59
73267;BME280;61495;53.400;7.608;2023-09-07T12:06:41;102091.69;;;29.48;52.29
73267;BME280;61495;53.400;7.608;2023-09-07T12:09:07;102087.75;;;29.35;49.91
73267;BME280;61495;53.400;7.608;2023-09-07T12:11:32;102088.56;;;29.36;50.38
73267;BME280;61495;53.400;7.608;2023-09-07T12:13:59;102081.63;;;29.52;51.65
73267;BME280;61495;53.400;7.608;2023-09-07T12:16:28;102084.34;;;29.57;51.58
73267;BME280;61495;53.400;7.608;2023-09-07T12:18:54;102077.66;;;29.58;51.35
73267;BME280;61495;53.400;7.608;2023-09-07T12:21:20;102071.03;;;29.59;52.07
73267;BME280;61495;53.400;7.608;2023-09-07T12:23:45;102076.78;;;29.62;52.26
73267;BME280;61495;53.400;7.608;2023-09-07T12:26:14;102074.13;;;29.71;52.11
73267;BME280;61495;53.400;7.608;2023-09-07T12:28:41;102083.72;;;29.73;51.39
73267;BME280;61495;53.400;7.608;2023-09-07T12:31:07;102073.78;;;29.72;51.19
73267;BME280;61495;53.400;7.608;2023-09-07T12:33:32;102069.69;;;29.70;52.23
73267;BME280;61495;53.400;7.608;2023-09-07T12:35:58;102078.09;;;29.65;51.72
73267;BME280;61495;53.400;7.608;2023-09-07T12:38:25;102078.44;;;29.77;52.40
73267;BME280;61495;53.400;7.608;2023-09-07T12:40:54;102070.25;;;29.72;52.22
73267;BME280;61495;53.400;7.608;2023-09-07T12:43:19;102064.28;;;29.78;52.20
73267;BME280;61495;53.400;7.608;2023-09-07T12:45:45;102067.59;;;29.81;52.33
73267;BME280;61495;53.400;7.608;2023-09-07T12:48:11;102059.81;;;29.83;52.07